Upper Frankford, Pennsylvania
Current Conditions -  °F | °C
As of 8:56 AM on Saturday 20 Dec 2014 (Local Time) from KCXY Reporting Station
Overcast Overcast  
Wind Chill: 24°   Ceiling: 3000
Heat Index: 31°   Visibility: 10mi
Dew Point: 20°   Wind: 7mph
Humidity: 64%   Direction: 300°WNW
Pressure: 30.3"   Gusts: NA
Location:  40.183°N, 77.4166°W
Report Text: KCXY 201356Z 30006KT 10SM OVC030 M01/M07 A3030 RMK AO2 SLP267 T10061067
Loading
Personal Weather Stations






























Interactive Weather Map New forecast layout! Learn more

10-Day Weather Forecast

Advertisements
Track Severe Weather on mobile